createdAt,value
2022-11-12T00:00:04.573Z,67.38
2022-11-12T00:00:17.717Z,67.25
2022-11-12T00:00:31.579Z,67.25
2022-11-12T00:01:22.932Z,67.29
2022-11-12T00:01:36.137Z,67.19
2022-11-12T00:01:48.995Z,67.25
2022-11-12T00:02:02.185Z,67.33
2022-11-12T00:02:34.908Z,67.47
2022-11-12T00:02:47.715Z,67.39
2022-11-12T00:03:00.612Z,67.36
2022-11-12T00:03:33.411Z,67.37
2022-11-12T00:03:46.784Z,67.20
2022-11-12T00:03:59.846Z,67.12
2022-11-12T00:04:32.667Z,67.06
2022-11-12T00:04:45.652Z,67.09
2022-11-12T00:04:58.546Z,67.12
2022-11-12T00:05:31.342Z,67.08
2022-11-12T00:06:04.124Z,67.27
2022-11-12T00:06:17.038Z,67.37
2022-11-12T00:06:49.776Z,67.38
2022-11-12T00:07:02.760Z,67.45
2022-11-12T00:07:15.672Z,67.52
2022-11-12T00:07:28.808Z,67.56
2022-11-12T00:07:41.634Z,67.56
2022-11-12T00:08:14.355Z,67.46
2022-11-12T00:08:27.759Z,67.25
2022-11-12T00:08:40.838Z,67.32
2022-11-12T00:08:53.974Z,67.27
2022-11-12T00:09:06.951Z,67.27
2022-11-12T00:09:22.815Z,67.34
2022-11-12T00:09:35.848Z,67.40
2022-11-12T00:09:49.845Z,67.35
2022-11-12T00:10:02.693Z,67.26
2022-11-12T00:10:35.597Z,67.27
2022-11-12T00:10:48.479Z,67.50
2022-11-12T00:11:01.640Z,67.50
2022-11-12T00:11:14.629Z,67.37
2022-11-12T00:11:28.078Z,67.31
2022-11-12T00:11:40.880Z,67.32
2022-11-12T00:11:54.639Z,67.34
2022-11-12T00:12:07.485Z,67.47
2022-11-12T00:12:20.319Z,67.57
2022-11-12T00:12:33.179Z,67.60
2022-11-12T00:13:05.934Z,67.57
2022-11-12T00:13:19.052Z,67.52
2022-11-12T00:13:31.890Z,67.59
2022-11-12T00:13:44.810Z,67.57
2022-11-12T00:13:57.637Z,67.52
2022-11-12T00:14:30.384Z,67.53
2022-11-12T00:14:43.682Z,67.45
2022-11-12T00:14:56.535Z,67.43
2022-11-12T00:15:09.904Z,67.34
2022-11-12T00:16:01.772Z,67.22
2022-11-12T00:16:15.136Z,67.29
2022-11-12T00:16:47.884Z,67.33
2022-11-12T00:17:00.749Z,67.33
2022-11-12T00:17:14.036Z,67.50
2022-11-12T00:17:27.067Z,67.62
2022-11-12T00:17:40.012Z,67.60
2022-11-12T00:17:53.467Z,67.59
2022-11-12T00:18:07.649Z,67.58
2022-11-12T00:18:20.427Z,67.64
2022-11-12T00:18:33.290Z,67.55
2022-11-12T00:18:48.234Z,67.45
2022-11-12T00:19:01.294Z,67.42
2022-11-12T00:19:14.118Z,67.43
2022-11-12T00:19:26.969Z,67.41
2022-11-12T00:20:18.809Z,67.34
2022-11-12T00:20:51.534Z,67.35
2022-11-12T00:21:24.269Z,67.15
2022-11-12T00:21:37.109Z,67.17
2022-11-12T00:21:49.930Z,67.13
2022-11-12T00:22:22.768Z,67.10
2022-11-12T00:22:35.595Z,67.06
2022-11-12T00:22:48.401Z,66.97
2022-11-12T00:23:01.675Z,66.99
2022-11-12T00:23:14.578Z,66.90
2022-11-12T00:23:27.362Z,66.84
2022-11-12T00:23:40.199Z,66.80
2022-11-12T00:23:53.029Z,66.77
2022-11-12T00:24:06.006Z,66.83
2022-11-12T00:24:18.828Z,66.92
2022-11-12T00:24:32.258Z,66.92
2022-11-12T00:24:45.168Z,66.91
2022-11-12T00:24:58.119Z,67.02
2022-11-12T00:25:30.862Z,66.98
2022-11-12T00:25:44.159Z,66.97
2022-11-12T00:26:00.999Z,67.00
2022-11-12T00:26:13.927Z,67.09
2022-11-12T00:26:26.745Z,67.08
2022-11-12T00:26:39.596Z,67.11
2022-11-12T00:27:12.380Z,67.10
2022-11-12T00:27:45.317Z,67.17
2022-11-12T00:28:08.046Z,67.04
2022-11-12T00:28:40.815Z,67.08
2022-11-12T00:28:53.993Z,67.06
2022-11-12T00:29:06.863Z,67.03
2022-11-12T00:29:19.888Z,67.00
2022-11-12T00:30:11.613Z,67.03
2022-11-12T00:30:24.431Z,67.09
2022-11-12T00:30:38.154Z,67.02
2022-11-12T00:30:51.221Z,66.96
2022-11-12T00:31:08.741Z,66.98
2022-11-12T00:31:21.788Z,67.07
2022-11-12T00:31:34.736Z,67.16
2022-11-12T00:32:07.702Z,67.26
2022-11-12T00:32:21.113Z,67.14
2022-11-12T00:32:54.793Z,67.14
2022-11-12T00:33:07.724Z,67.08
2022-11-12T00:33:41.761Z,67.18
2022-11-12T00:33:55.106Z,66.89
2022-11-12T00:34:08.074Z,66.90
2022-11-12T00:34:20.905Z,66.91
2022-11-12T00:34:33.776Z,66.98
2022-11-12T00:34:46.932Z,66.95
2022-11-12T00:35:02.655Z,66.98
2022-11-12T00:35:15.997Z,67.05
2022-11-12T00:35:29.056Z,67.09
2022-11-12T00:36:01.771Z,66.98
2022-11-12T00:36:18.457Z,66.89
2022-11-12T00:36:48.301Z,66.84
2022-11-12T00:37:01.254Z,66.82
2022-11-12T00:37:14.154Z,66.82
2022-11-12T00:37:27.053Z,66.79
2022-11-12T00:37:39.870Z,66.75
2022-11-12T00:37:56.738Z,66.73
2022-11-12T00:38:31.089Z,66.76
2022-11-12T00:39:04.339Z,66.68
2022-11-12T00:39:17.216Z,66.80
2022-11-12T00:39:30.331Z,66.77
2022-11-12T00:39:43.162Z,66.83
2022-11-12T00:40:16.171Z,66.81
2022-11-12T00:40:29.487Z,66.71
2022-11-12T00:40:42.866Z,66.76
2022-11-12T00:40:58.906Z,66.77
2022-11-12T00:41:11.786Z,66.72
2022-11-12T00:41:24.699Z,66.70
2022-11-12T00:41:37.982Z,66.75
2022-11-12T00:41:51.237Z,66.78
2022-11-12T00:42:04.304Z,66.75
2022-11-12T00:42:17.519Z,66.65
2022-11-12T00:42:30.353Z,66.58
2022-11-12T00:42:43.150Z,66.58
2022-11-12T00:43:34.560Z,66.62
2022-11-12T00:43:47.437Z,66.54
2022-11-12T00:44:00.480Z,66.58
2022-11-12T00:44:13.502Z,66.50
2022-11-12T00:44:27.657Z,66.62
2022-11-12T00:44:40.892Z,66.67
2022-11-12T00:45:13.668Z,66.69
2022-11-12T00:45:26.684Z,66.52
2022-11-12T00:45:39.540Z,66.43
2022-11-12T00:45:52.410Z,66.46
2022-11-12T00:46:05.245Z,66.55
2022-11-12T00:46:18.176Z,66.61
2022-11-12T00:46:33.426Z,66.55
2022-11-12T00:47:06.200Z,66.41
2022-11-12T00:47:19.157Z,66.54
2022-11-12T00:47:32.169Z,66.58
2022-11-12T00:48:23.543Z,66.62
2022-11-12T00:48:36.586Z,66.41
2022-11-12T00:49:09.730Z,66.45
2022-11-12T00:49:22.947Z,66.56
2022-11-12T00:49:35.859Z,66.54
2022-11-12T00:50:09.324Z,66.44
2022-11-12T00:50:22.840Z,66.40
2022-11-12T00:51:04.993Z,66.50
2022-11-12T00:51:17.846Z,66.54
2022-11-12T00:51:50.707Z,66.49
2022-11-12T00:52:03.816Z,66.59
2022-11-12T00:52:16.749Z,66.61
2022-11-12T00:52:52.379Z,66.63
2022-11-12T00:53:05.628Z,66.56
2022-11-12T00:53:19.698Z,66.60
2022-11-12T00:53:33.064Z,66.61
2022-11-12T00:53:49.246Z,66.63
2022-11-12T00:54:43.048Z,66.59
2022-11-12T00:55:15.793Z,66.44
2022-11-12T00:55:28.721Z,66.46
2022-11-12T00:55:41.818Z,66.45
2022-11-12T00:56:00.200Z,66.50
2022-11-12T00:56:13.025Z,66.46
2022-11-12T00:56:25.850Z,66.42
2022-11-12T00:56:58.581Z,66.47
2022-11-12T00:57:11.374Z,66.39
2022-11-12T00:57:24.480Z,66.38
2022-11-12T00:58:00.280Z,66.30
2022-11-12T00:58:13.231Z,66.23
2022-11-12T00:58:28.899Z,66.23
2022-11-12T00:59:02.596Z,66.05
2022-11-12T00:59:35.386Z,66.06
2022-11-12T00:59:48.297Z,66.06
2022-11-12T01:00:01.158Z,66.09
2022-11-12T01:00:17.681Z,66.14
2022-11-12T01:00:30.493Z,66.18
2022-11-12T01:00:44.235Z,66.18
2022-11-12T01:00:57.770Z,66.18
2022-11-12T01:01:30.502Z,66.20
2022-11-12T01:01:43.347Z,66.12
2022-11-12T01:01:56.179Z,66.09
2022-11-12T01:02:09.072Z,66.13
2022-11-12T01:02:22.294Z,66.09
2022-11-12T01:02:42.197Z,66.06
2022-11-12T01:02:56.196Z,66.04
2022-11-12T01:03:09.027Z,66.02
2022-11-12T01:03:21.926Z,66.00
2022-11-12T01:03:54.725Z,65.99
2022-11-12T01:04:07.743Z,65.98
2022-11-12T01:04:40.445Z,66.04
2022-11-12T01:04:53.579Z,66.12
2022-11-12T01:05:06.658Z,66.10
2022-11-12T01:05:19.845Z,66.08
2022-11-12T01:05:33.174Z,65.96
2022-11-12T01:05:46.043Z,65.95
2022-11-12T01:06:23.051Z,65.94
2022-11-12T01:06:39.417Z,65.96
2022-11-12T01:06:52.428Z,65.82
2022-11-12T01:07:05.379Z,65.85
2022-11-12T01:07:18.257Z,65.85
2022-11-12T01:07:31.128Z,65.93
2022-11-12T01:07:43.945Z,65.99
2022-11-12T01:07:57.265Z,65.98
2022-11-12T01:08:10.601Z,66.10
2022-11-12T01:08:24.101Z,66.17
2022-11-12T01:08:37.600Z,66.16
2022-11-12T01:09:10.321Z,66.15
2022-11-12T01:09:23.210Z,66.17
2022-11-12T01:09:36.099Z,66.22
2022-11-12T01:09:51.190Z,66.10
2022-11-12T01:10:04.925Z,66.12
2022-11-12T01:10:18.623Z,66.02
2022-11-12T01:10:31.461Z,65.99
2022-11-12T01:10:44.258Z,66.06
2022-11-12T01:10:57.103Z,66.09
2022-11-12T01:11:16.489Z,66.03
2022-11-12T01:11:29.902Z,66.12
2022-11-12T01:11:42.843Z,66.14
2022-11-12T01:12:15.599Z,66.08
2022-11-12T01:12:31.035Z,65.91
2022-11-12T01:12:43.973Z,65.90
2022-11-12T01:12:57.131Z,65.87
2022-11-12T01:13:28.289Z,65.87
2022-11-12T01:14:02.509Z,65.95
2022-11-12T01:14:15.333Z,66.19
2022-11-12T01:14:28.229Z,66.27
2022-11-12T01:14:41.213Z,66.37
2022-11-12T01:14:54.083Z,66.42
2022-11-12T01:15:07.975Z,66.42
2022-11-12T01:15:20.895Z,66.37
2022-11-12T01:15:33.722Z,66.26
2022-11-12T01:15:46.555Z,66.24
2022-11-12T01:15:59.437Z,66.29
2022-11-12T01:16:22.743Z,66.32
2022-11-12T01:16:39.212Z,66.30
2022-11-12T01:16:52.042Z,66.31
2022-11-12T01:17:24.823Z,66.34
2022-11-12T01:17:57.663Z,66.42
2022-11-12T01:18:10.531Z,66.44
2022-11-12T01:18:23.603Z,66.46
2022-11-12T01:18:37.632Z,66.44
2022-11-12T01:18:55.010Z,66.31
2022-11-12T01:19:46.776Z,66.30
2022-11-12T01:19:59.604Z,66.39
2022-11-12T01:20:12.411Z,66.32
2022-11-12T01:20:25.268Z,66.26
2022-11-12T01:20:39.261Z,66.22
2022-11-12T01:20:52.212Z,66.19
2022-11-12T01:21:26.487Z,66.21
2022-11-12T01:21:43.230Z,66.17
2022-11-12T01:22:16.009Z,66.16
2022-11-12T01:22:29.181Z,66.35
2022-11-12T01:22:42.065Z,66.41
2022-11-12T01:22:54.921Z,66.40
2022-11-12T01:23:07.744Z,66.41
2022-11-12T01:23:20.571Z,66.39
2022-11-12T01:23:53.355Z,66.39
2022-11-12T01:24:06.336Z,66.38
2022-11-12T01:24:19.520Z,66.42
2022-11-12T01:24:32.842Z,66.41
2022-11-12T01:24:46.668Z,66.41
2022-11-12T01:25:21.360Z,66.40
2022-11-12T01:25:37.321Z,66.42
2022-11-12T01:25:50.120Z,66.29
2022-11-12T01:26:07.044Z,66.31
2022-11-12T01:26:21.008Z,66.33
2022-11-12T01:26:36.048Z,66.36
2022-11-12T01:26:48.966Z,66.47
2022-11-12T01:27:01.867Z,66.50
2022-11-12T01:27:14.712Z,66.54
2022-11-12T01:27:27.556Z,66.58
2022-11-12T01:27:40.371Z,66.56
2022-11-12T01:27:53.567Z,66.51
2022-11-12T01:28:06.380Z,66.45
2022-11-12T01:28:20.187Z,66.44
2022-11-12T01:28:32.969Z,66.44
2022-11-12T01:29:06.747Z,66.42
2022-11-12T01:29:19.782Z,66.31
2022-11-12T01:29:32.589Z,66.30
2022-11-12T01:29:45.469Z,66.31
2022-11-12T01:29:59.510Z,66.27
2022-11-12T01:30:12.418Z,66.29
2022-11-12T01:30:25.456Z,66.26
2022-11-12T01:30:38.330Z,66.21
2022-11-12T01:30:51.170Z,66.22
2022-11-12T01:31:37.013Z,66.20
2022-11-12T01:31:49.910Z,66.10
2022-11-12T01:32:41.557Z,66.08
2022-11-12T01:33:14.954Z,66.20
2022-11-12T01:33:27.764Z,66.33
2022-11-12T01:33:41.808Z,66.40
2022-11-12T01:33:56.517Z,66.36
2022-11-12T01:34:10.021Z,66.44
2022-11-12T01:34:23.316Z,66.38
2022-11-12T01:34:36.368Z,66.35
2022-11-12T01:34:50.991Z,66.32
2022-11-12T01:35:04.242Z,66.42
2022-11-12T01:36:00.277Z,66.42
2022-11-12T01:36:14.983Z,66.22
2022-11-12T01:36:47.898Z,66.20
2022-11-12T01:37:20.644Z,66.17
2022-11-12T01:37:33.560Z,66.39
2022-11-12T01:38:06.445Z,66.48
2022-11-12T01:38:19.845Z,66.55
2022-11-12T01:38:36.887Z,66.54
2022-11-12T01:39:09.957Z,66.53
2022-11-12T01:39:42.696Z,66.66
2022-11-12T01:39:55.932Z,66.63
2022-11-12T01:40:09.384Z,66.50
2022-11-12T01:40:42.133Z,66.52
2022-11-12T01:40:55.704Z,66.38
2022-11-12T01:41:09.510Z,66.44
2022-11-12T01:41:27.005Z,66.44
2022-11-12T01:41:59.912Z,66.51
2022-11-12T01:42:32.934Z,66.50
2022-11-12T01:43:12.610Z,66.57
2022-11-12T01:43:45.488Z,66.37
2022-11-12T01:44:14.803Z,66.40
2022-11-12T01:44:31.653Z,66.35
2022-11-12T01:44:45.563Z,66.31
2022-11-12T01:44:58.345Z,66.26
2022-11-12T01:45:16.191Z,66.21
2022-11-12T01:45:30.138Z,66.27
2022-11-12T01:45:44.784Z,66.24
2022-11-12T01:45:57.696Z,66.25
2022-11-12T01:46:13.713Z,66.22
2022-11-12T01:46:28.559Z,66.22
2022-11-12T01:46:46.788Z,66.27
2022-11-12T01:46:59.609Z,66.26
2022-11-12T01:47:17.881Z,66.22
2022-11-12T01:47:33.110Z,66.23
2022-11-12T01:47:47.145Z,66.21
2022-11-12T01:48:00.381Z,66.29
2022-11-12T01:48:25.677Z,66.37
2022-11-12T01:48:50.963Z,66.33
2022-11-12T01:49:06.032Z,66.31
2022-11-12T01:49:22.937Z,66.24
2022-11-12T01:50:28.098Z,66.25
2022-11-12T01:50:40.967Z,66.22
2022-11-12T01:50:54.022Z,66.17
2022-11-12T01:51:07.749Z,66.07
2022-11-12T01:51:23.649Z,66.11
2022-11-12T01:51:39.408Z,66.14
2022-11-12T01:51:52.267Z,66.26
2022-11-12T01:52:16.820Z,66.20
2022-11-12T01:52:35.183Z,66.09
2022-11-12T01:52:50.355Z,66.14
2022-11-12T01:53:08.638Z,66.10
2022-11-12T01:53:21.662Z,66.04
2022-11-12T01:53:37.526Z,66.09
2022-11-12T01:53:52.262Z,66.10
2022-11-12T01:54:06.838Z,66.08
2022-11-12T01:54:20.404Z,66.17
2022-11-12T01:54:33.551Z,66.13
2022-11-12T01:54:49.733Z,66.14
2022-11-12T01:55:05.777Z,66.22
2022-11-12T01:55:22.172Z,66.17
2022-11-12T01:55:36.054Z,66.12
2022-11-12T01:55:49.248Z,66.07
2022-11-12T01:56:02.900Z,66.09
2022-11-12T01:56:16.587Z,66.10
2022-11-12T01:56:30.158Z,66.08
2022-11-12T01:56:43.026Z,66.07
2022-11-12T01:56:56.135Z,66.13
2022-11-12T01:57:09.550Z,66.10
2022-11-12T01:57:34.815Z,66.15
2022-11-12T01:57:50.537Z,66.06
2022-11-12T01:58:11.629Z,66.05
2022-11-12T01:58:25.580Z,66.06
2022-11-12T01:58:38.728Z,65.96
2022-11-12T01:58:56.657Z,66.02
2022-11-12T01:59:13.002Z,65.94
2022-11-12T01:59:28.609Z,65.77
2022-11-12T01:59:43.743Z,65.75
2022-11-12T01:59:58.697Z,65.75
2022-11-12T02:00:12.377Z,65.74
2022-11-12T02:00:25.505Z,65.78
2022-11-12T02:00:38.546Z,65.78
2022-11-12T02:00:51.673Z,65.86
2022-11-12T02:01:04.585Z,65.87
2022-11-12T02:01:17.631Z,65.86
2022-11-12T02:01:30.596Z,65.91
2022-11-12T02:01:43.547Z,65.96
2022-11-12T02:01:56.456Z,66.06
2022-11-12T02:02:09.550Z,66.10
2022-11-12T02:02:22.691Z,66.11
2022-11-12T02:02:36.743Z,66.16
2022-11-12T02:02:54.769Z,66.19
2022-11-12T02:03:11.647Z,66.28
2022-11-12T02:03:24.776Z,66.27
2022-11-12T02:03:37.894Z,66.22
2022-11-12T02:03:50.790Z,66.32
2022-11-12T02:04:03.702Z,66.40
2022-11-12T02:04:16.742Z,66.42
2022-11-12T02:04:29.636Z,66.40
2022-11-12T02:04:42.710Z,66.33
2022-11-12T02:04:55.575Z,66.29
2022-11-12T02:05:09.578Z,66.26
2022-11-12T02:05:22.502Z,66.29
2022-11-12T02:05:35.383Z,66.22
2022-11-12T02:05:57.499Z,66.19
2022-11-12T02:06:12.822Z,66.19
2022-11-12T02:06:25.766Z,66.19
2022-11-12T02:06:38.653Z,66.27
2022-11-12T02:06:51.606Z,66.36
2022-11-12T02:07:04.571Z,66.40
2022-11-12T02:07:17.792Z,66.36
2022-11-12T02:07:31.300Z,66.47
2022-11-12T02:07:44.334Z,66.53
2022-11-12T02:07:57.652Z,66.53
2022-11-12T02:08:13.072Z,66.58
2022-11-12T02:08:26.237Z,66.41
2022-11-12T02:08:39.285Z,66.33
2022-11-12T02:08:52.115Z,66.33
2022-11-12T02:09:05.377Z,66.33
2022-11-12T02:09:18.242Z,66.32
2022-11-12T02:09:31.216Z,66.34
2022-11-12T02:09:44.112Z,66.28
2022-11-12T02:09:56.954Z,66.36
2022-11-12T02:10:10.075Z,66.37
2022-11-12T02:10:23.051Z,66.32
2022-11-12T02:10:35.862Z,66.34
2022-11-12T02:10:48.716Z,66.32
2022-11-12T02:11:27.310Z,66.30
2022-11-12T02:11:40.203Z,66.18
2022-11-12T02:11:53.072Z,66.11
2022-11-12T02:12:06.359Z,66.21
2022-11-12T02:12:37.982Z,66.24
2022-11-12T02:13:09.606Z,66.22
2022-11-12T02:13:41.181Z,66.28
2022-11-12T02:14:03.116Z,66.48
2022-11-12T02:14:16.003Z,66.47
2022-11-12T02:14:28.843Z,66.40
2022-11-12T02:14:41.706Z,66.32
2022-11-12T02:14:54.551Z,66.30
2022-11-12T02:15:07.867Z,66.32
2022-11-12T02:15:20.743Z,66.31
2022-11-12T02:15:33.615Z,66.29
2022-11-12T02:15:46.433Z,66.27
2022-11-12T02:15:59.280Z,66.29
2022-11-12T02:16:12.103Z,66.24
2022-11-12T02:16:30.695Z,66.29
2022-11-12T02:16:45.071Z,66.38
2022-11-12T02:16:57.904Z,66.44
2022-11-12T02:17:10.724Z,66.45
2022-11-12T02:17:23.567Z,66.37
2022-11-12T02:17:36.410Z,66.42
2022-11-12T02:17:49.287Z,66.38
2022-11-12T02:18:02.223Z,66.37
2022-11-12T02:18:15.059Z,66.31
2022-11-12T02:18:28.201Z,66.24
2022-11-12T02:18:41.327Z,66.21
2022-11-12T02:18:54.208Z,66.20
2022-11-12T02:19:09.523Z,66.11
2022-11-12T02:19:22.344Z,66.19
2022-11-12T02:19:37.434Z,66.27
2022-11-12T02:19:52.371Z,66.36
2022-11-12T02:20:07.397Z,66.41
2022-11-12T02:20:20.350Z,66.42
2022-11-12T02:20:34.692Z,66.51
2022-11-12T02:20:55.926Z,66.64
2022-11-12T02:21:09.082Z,66.67
2022-11-12T02:21:25.496Z,66.68
2022-11-12T02:21:38.356Z,66.74
2022-11-12T02:21:51.175Z,66.77
2022-11-12T02:22:03.988Z,66.78
2022-11-12T02:22:16.861Z,66.67
2022-11-12T02:22:29.742Z,66.56
2022-11-12T02:22:42.570Z,66.56
2022-11-12T02:22:55.367Z,66.61
2022-11-12T02:23:08.250Z,66.63
2022-11-12T02:23:21.093Z,66.67
2022-11-12T02:23:33.942Z,66.65
2022-11-12T02:23:46.772Z,66.64
2022-11-12T02:24:20.590Z,66.59
2022-11-12T02:24:34.213Z,66.57
2022-11-12T02:24:47.057Z,66.67
2022-11-12T02:24:59.955Z,66.72
2022-11-12T02:25:13.752Z,66.67
2022-11-12T02:25:26.577Z,66.74
2022-11-12T02:25:39.512Z,66.83
2022-11-12T02:25:52.358Z,66.80
2022-11-12T02:26:05.274Z,66.78
2022-11-12T02:26:18.091Z,66.78
2022-11-12T02:26:35.860Z,66.73
2022-11-12T02:26:51.273Z,66.64
2022-11-12T02:27:05.102Z,66.61
2022-11-12T02:27:17.944Z,66.60
2022-11-12T02:27:30.821Z,66.59
2022-11-12T02:27:44.151Z,66.58
2022-11-12T02:27:57.201Z,66.62
2022-11-12T02:28:12.338Z,66.65
2022-11-12T02:28:25.454Z,66.67
2022-11-12T02:28:38.422Z,66.67
2022-11-12T02:28:51.266Z,66.70
2022-11-12T02:29:04.147Z,66.62
2022-11-12T02:29:17.232Z,66.71
2022-11-12T02:29:30.050Z,66.75
2022-11-12T02:29:46.417Z,66.84
2022-11-12T02:29:59.458Z,66.78
2022-11-12T02:30:12.471Z,66.67
2022-11-12T02:30:38.247Z,66.61
2022-11-12T02:30:51.196Z,66.63
2022-11-12T02:31:04.066Z,66.63
2022-11-12T02:31:17.015Z,66.58
2022-11-12T02:31:29.891Z,66.66
2022-11-12T02:31:42.828Z,66.69
2022-11-12T02:31:55.684Z,66.69
2022-11-12T02:32:08.583Z,66.62
2022-11-12T02:32:21.399Z,66.62
2022-11-12T02:32:34.204Z,66.61
2022-11-12T02:32:47.109Z,66.67
2022-11-12T02:32:59.995Z,66.63
2022-11-12T02:33:12.829Z,66.59
2022-11-12T02:33:25.775Z,66.66
2022-11-12T02:33:38.613Z,66.73
2022-11-12T02:33:51.538Z,66.74
2022-11-12T02:34:04.462Z,66.87
2022-11-12T02:34:17.273Z,66.82
2022-11-12T02:34:30.116Z,66.81
2022-11-12T02:34:42.955Z,66.82
2022-11-12T02:34:55.801Z,66.92
2022-11-12T02:35:08.637Z,66.95
2022-11-12T02:35:21.486Z,66.99
2022-11-12T02:35:34.323Z,67.08
2022-11-12T02:35:47.168Z,66.98
2022-11-12T02:36:00.162Z,66.95
2022-11-12T02:36:13.000Z,66.88
2022-11-12T02:36:25.947Z,66.85
2022-11-12T02:36:38.790Z,66.82
2022-11-12T02:36:51.640Z,66.78
2022-11-12T02:37:04.460Z,66.67
2022-11-12T02:37:17.332Z,66.62
2022-11-12T02:37:30.217Z,66.59
2022-11-12T02:38:01.784Z,66.54
2022-11-12T02:38:14.717Z,66.47
2022-11-12T02:38:27.702Z,66.77
2022-11-12T02:38:40.730Z,66.82
2022-11-12T02:38:53.614Z,66.81
2022-11-12T02:39:06.462Z,66.82
2022-11-12T02:39:19.316Z,66.81
2022-11-12T02:39:32.132Z,66.79
2022-11-12T02:39:44.968Z,66.82
2022-11-12T02:39:57.860Z,66.81
2022-11-12T02:40:10.977Z,66.77
2022-11-12T02:40:23.803Z,66.79
2022-11-12T02:40:36.695Z,66.86
2022-11-12T02:40:49.504Z,66.92
2022-11-12T02:41:02.364Z,66.93
2022-11-12T02:41:15.335Z,67.05
2022-11-12T02:41:28.169Z,67.11
2022-11-12T02:41:41.041Z,67.11
2022-11-12T02:41:53.893Z,67.15
2022-11-12T02:42:06.768Z,67.10
2022-11-12T02:42:19.597Z,67.14
2022-11-12T02:42:32.457Z,67.15
2022-11-12T02:42:45.258Z,67.10
2022-11-12T02:42:58.099Z,67.08
2022-11-12T02:43:10.929Z,67.07
2022-11-12T02:43:23.806Z,66.97
2022-11-12T02:43:36.704Z,67.04
2022-11-12T02:43:49.503Z,67.05
2022-11-12T02:44:02.337Z,67.06
2022-11-12T02:44:15.149Z,67.01
2022-11-12T02:44:28.227Z,67.06
2022-11-12T02:44:41.073Z,67.00
2022-11-12T02:44:53.942Z,66.87
2022-11-12T02:45:07.151Z,66.94
2022-11-12T02:45:20.002Z,66.94
2022-11-12T02:45:32.865Z,66.89
2022-11-12T02:45:45.688Z,66.88
2022-11-12T02:45:58.531Z,66.80
2022-11-12T02:46:11.347Z,66.94
2022-11-12T02:46:24.238Z,66.93
2022-11-12T02:46:37.097Z,66.88
2022-11-12T02:46:49.971Z,66.94
2022-11-12T02:47:02.773Z,67.00
2022-11-12T02:47:15.613Z,67.16
2022-11-12T02:47:28.441Z,67.15
2022-11-12T02:47:41.307Z,67.10
2022-11-12T02:47:54.233Z,67.05
2022-11-12T02:48:07.070Z,67.04
2022-11-12T02:48:19.936Z,67.02
2022-11-12T02:48:32.767Z,67.07
2022-11-12T02:48:45.652Z,67.12
2022-11-12T02:48:58.466Z,67.12
2022-11-12T02:49:11.308Z,67.07
2022-11-12T02:49:24.116Z,67.12
2022-11-12T02:49:36.944Z,67.12
2022-11-12T02:49:49.813Z,67.10
2022-11-12T02:50:03.151Z,67.09
2022-11-12T02:50:16.412Z,67.04
2022-11-12T02:50:29.238Z,67.00
2022-11-12T02:50:42.107Z,67.00
2022-11-12T02:50:54.939Z,67.03
2022-11-12T02:51:07.803Z,67.16
2022-11-12T02:51:20.686Z,67.21
2022-11-12T02:51:33.573Z,67.32
2022-11-12T02:51:46.393Z,67.38
2022-11-12T02:51:59.215Z,67.39
2022-11-12T02:52:12.052Z,67.38
2022-11-12T02:52:24.978Z,67.42
2022-11-12T02:52:39.824Z,67.29
2022-11-12T02:52:52.722Z,67.22
2022-11-12T02:53:05.544Z,67.14
2022-11-12T02:53:18.413Z,67.13
2022-11-12T02:53:32.607Z,67.11
2022-11-12T02:53:45.430Z,67.20
2022-11-12T02:53:58.344Z,67.07
2022-11-12T02:54:11.173Z,67.12
2022-11-12T02:54:23.988Z,67.16
2022-11-12T02:54:36.897Z,67.19
2022-11-12T02:54:49.749Z,67.16
2022-11-12T02:55:02.582Z,67.06
2022-11-12T02:55:15.535Z,67.10
2022-11-12T02:55:28.355Z,67.10
2022-11-12T02:55:42.557Z,67.01
2022-11-12T02:55:55.397Z,67.02
2022-11-12T02:56:08.237Z,66.87
2022-11-12T02:56:21.071Z,66.98
2022-11-12T02:56:35.389Z,67.00
2022-11-12T02:56:48.265Z,67.15
2022-11-12T02:57:01.140Z,67.13
2022-11-12T02:57:13.966Z,67.17
2022-11-12T02:57:27.360Z,67.19
2022-11-12T02:57:40.316Z,67.15
2022-11-12T02:57:57.460Z,67.15
2022-11-12T02:58:10.339Z,66.96
2022-11-12T02:58:23.342Z,67.03
2022-11-12T02:58:36.401Z,66.99
2022-11-12T02:58:49.374Z,67.02
2022-11-12T02:59:02.343Z,67.10
2022-11-12T02:59:15.171Z,67.24
2022-11-12T02:59:28.020Z,67.26
2022-11-12T02:59:40.874Z,67.21
2022-11-12T02:59:53.768Z,67.24
2022-11-12T03:00:08.722Z,67.29
2022-11-12T03:00:21.918Z,67.32
2022-11-12T03:00:34.868Z,67.30
2022-11-12T03:00:48.159Z,67.26
2022-11-12T03:01:01.151Z,67.23
2022-11-12T03:01:14.133Z,67.12
2022-11-12T03:01:27.182Z,67.09
2022-11-12T03:01:40.108Z,67.10
2022-11-12T03:01:53.020Z,67.06
2022-11-12T03:02:05.863Z,66.96
2022-11-12T03:02:18.710Z,66.98
2022-11-12T03:02:31.607Z,67.09
2022-11-12T03:02:58.890Z,67.18
2022-11-12T03:03:12.118Z,67.22
2022-11-12T03:03:25.104Z,67.07
2022-11-12T03:03:38.552Z,67.11
2022-11-12T03:03:51.938Z,67.00
2022-11-12T03:04:04.844Z,67.02
2022-11-12T03:04:17.715Z,67.09
2022-11-12T03:04:30.600Z,67.05
2022-11-12T03:04:49.112Z,66.98
2022-11-12T03:05:02.416Z,67.07
2022-11-12T03:05:15.319Z,67.08
2022-11-12T03:05:32.210Z,67.15
2022-11-12T03:05:45.447Z,67.12
2022-11-12T03:06:01.484Z,67.18
2022-11-12T03:06:14.418Z,67.15
2022-11-12T03:06:27.319Z,67.14
2022-11-12T03:06:40.313Z,67.16
2022-11-12T03:06:53.323Z,67.10
2022-11-12T03:07:06.453Z,67.08
2022-11-12T03:07:19.476Z,67.07
2022-11-12T03:07:32.380Z,66.99
2022-11-12T03:07:45.268Z,67.06
2022-11-12T03:08:02.721Z,66.96
2022-11-12T03:08:15.614Z,66.99
2022-11-12T03:08:28.844Z,67.07
2022-11-12T03:08:41.923Z,67.15
2022-11-12T03:08:54.761Z,67.24
2022-11-12T03:09:07.632Z,67.24
2022-11-12T03:09:20.536Z,67.25
2022-11-12T03:09:33.397Z,67.23
2022-11-12T03:09:46.300Z,67.36
2022-11-12T03:09:59.307Z,67.32
2022-11-12T03:10:12.273Z,67.36
2022-11-12T03:10:27.568Z,67.44
2022-11-12T03:10:40.700Z,67.49
2022-11-12T03:10:53.738Z,67.54
2022-11-12T03:11:14.133Z,67.53
2022-11-12T03:11:27.761Z,67.64
2022-11-12T03:11:40.695Z,67.55
2022-11-12T03:11:53.570Z,67.53
2022-11-12T03:12:06.522Z,67.49
2022-11-12T03:12:38.038Z,67.44
2022-11-12T03:12:50.912Z,67.42
2022-11-12T03:13:03.799Z,67.24
2022-11-12T03:13:16.723Z,67.21
2022-11-12T03:13:29.644Z,67.14
2022-11-12T03:13:42.536Z,67.03
2022-11-12T03:13:55.424Z,67.05
2022-11-12T03:14:08.299Z,67.04
2022-11-12T03:14:21.189Z,67.05
2022-11-12T03:14:34.129Z,66.98
2022-11-12T03:14:47.123Z,66.92
2022-11-12T03:15:00.072Z,66.95
2022-11-12T03:15:12.947Z,66.94
2022-11-12T03:15:26.033Z,66.88
2022-11-12T03:15:38.892Z,66.93
2022-11-12T03:15:59.343Z,66.90
2022-11-12T03:16:12.298Z,66.87
2022-11-12T03:16:25.130Z,66.92
2022-11-12T03:16:38.072Z,66.91
2022-11-12T03:16:51.003Z,66.88
2022-11-12T03:17:04.146Z,66.88
2022-11-12T03:17:17.067Z,66.87
2022-11-12T03:17:29.954Z,66.82
2022-11-12T03:17:42.842Z,66.91
2022-11-12T03:17:57.031Z,66.91
2022-11-12T03:18:09.892Z,66.94
2022-11-12T03:18:22.805Z,66.91
2022-11-12T03:18:35.962Z,66.87
2022-11-12T03:18:48.846Z,66.95
2022-11-12T03:19:01.722Z,66.95
2022-11-12T03:19:14.558Z,67.03
2022-11-12T03:19:27.458Z,67.05
2022-11-12T03:19:40.351Z,67.04
2022-11-12T03:19:53.204Z,67.11
2022-11-12T03:20:08.556Z,67.07
2022-11-12T03:20:21.491Z,67.12
2022-11-12T03:20:34.895Z,67.12
2022-11-12T03:20:51.096Z,67.07
2022-11-12T03:21:04.510Z,66.98
2022-11-12T03:21:17.465Z,66.92
2022-11-12T03:21:30.377Z,66.89
2022-11-12T03:21:43.235Z,66.84
2022-11-12T03:21:56.144Z,66.85
2022-11-12T03:22:27.390Z,66.90
2022-11-12T03:22:40.543Z,66.87
2022-11-12T03:23:01.232Z,67.02
2022-11-12T03:23:14.096Z,66.76
2022-11-12T03:23:27.321Z,66.74
2022-11-12T03:23:40.227Z,66.67
2022-11-12T03:23:53.080Z,66.62
2022-11-12T03:24:06.138Z,66.67
2022-11-12T03:24:18.981Z,66.70
2022-11-12T03:24:31.836Z,66.68
2022-11-12T03:24:44.675Z,66.66
2022-11-12T03:25:16.131Z,66.81
2022-11-12T03:25:29.035Z,66.91
2022-11-12T03:25:41.949Z,67.07
2022-11-12T03:25:54.869Z,67.06
2022-11-12T03:26:07.717Z,67.10
2022-11-12T03:26:20.555Z,67.15
2022-11-12T03:26:36.013Z,67.05
2022-11-12T03:26:49.044Z,67.01
2022-11-12T03:27:01.911Z,67.18
2022-11-12T03:27:14.781Z,67.21
2022-11-12T03:27:27.616Z,67.27